Terminal Aerodrome Forecast
Issued by NWS Cleveland, OH

Home | Current Version | Previous Version | Text Only | Print | Product List | Glossary Off
Versions: 1 2 3 4 5 6 7 8 9 10 11 12 13 14 15

000
FTUS41 KCLE 170500
TAFYNG
TAF
KYNG 170524Z 1706/1806 VRB02KT P6SM SCT045
     FM170800 VRB02KT 5SM BR SKC
      TEMPO 1709/1713 1/2SM FG BKN002
     FM171400 24006KT P6SM SCT045
     FM172000 26006KT P6SM SCT250
     FM180100 VRB03KT P6SM SKC=

USA.gov is the U.S. government's official web portal to all federal, state and local government web resources and services.